sensor_id;sensor_type;location;lat;lon;timestamp;temperature;humidity
64961;SHT31;51487;52.266;10.542;2023-04-16T00:02:16;9.69;98.80
64961;SHT31;51487;52.266;10.542;2023-04-16T00:04:41;9.61;98.72
64961;SHT31;51487;52.266;10.542;2023-04-16T00:07:07;9.54;99.06
64961;SHT31;51487;52.266;10.542;2023-04-16T00:09:32;9.48;99.76
64961;SHT31;51487;52.266;10.542;2023-04-16T00:11:58;9.59;99.48
64961;SHT31;51487;52.266;10.542;2023-04-16T00:14:24;9.54;99.55
64961;SHT31;51487;52.266;10.542;2023-04-16T00:16:50;9.51;99.39
64961;SHT31;51487;52.266;10.542;2023-04-16T00:19:15;9.51;99.17
64961;SHT31;51487;52.266;10.542;2023-04-16T00:21:41;9.34;99.37
64961;SHT31;51487;52.266;10.542;2023-04-16T00:24:06;9.42;99.00
64961;SHT31;51487;52.266;10.542;2023-04-16T00:26:32;9.34;98.85
64961;SHT31;51487;52.266;10.542;2023-04-16T00:28:57;9.34;99.07
64961;SHT31;51487;52.266;10.542;2023-04-16T00:31:28;9.25;99.10
64961;SHT31;51487;52.266;10.542;2023-04-16T00:33:53;9.25;99.37
64961;SHT31;51487;52.266;10.542;2023-04-16T00:36:19;9.27;98.70
64961;SHT31;51487;52.266;10.542;2023-04-16T00:38:45;9.17;98.94
64961;SHT31;51487;52.266;10.542;2023-04-16T00:41:10;9.24;98.65
64961;SHT31;51487;52.266;10.542;2023-04-16T00:43:36;9.24;98.46
64961;SHT31;51487;52.266;10.542;2023-04-16T00:46:04;9.27;98.33
64961;SHT31;51487;52.266;10.542;2023-04-16T00:48:32;9.20;97.91
64961;SHT31;51487;52.266;10.542;2023-04-16T00:50:58;9.21;98.03
64961;SHT31;51487;52.266;10.542;2023-04-16T00:53:26;9.15;97.93
64961;SHT31;51487;52.266;10.542;2023-04-16T00:55:52;9.13;98.29
64961;SHT31;51487;52.266;10.542;2023-04-16T00:58:18;9.15;98.10
64961;SHT31;51487;52.266;10.542;2023-04-16T01:00:44;9.00;98.03
64961;SHT31;51487;52.266;10.542;2023-04-16T01:03:09;9.01;98.40
64961;SHT31;51487;52.266;10.542;2023-04-16T01:05:36;9.04;98.28
64961;SHT31;51487;52.266;10.542;2023-04-16T01:08:01;9.06;97.71
64961;SHT31;51487;52.266;10.542;2023-04-16T01:10:27;9.08;97.72
64961;SHT31;51487;52.266;10.542;2023-04-16T01:12:53;9.01;97.59
64961;SHT31;51487;52.266;10.542;2023-04-16T01:15:18;8.97;98.07
64961;SHT31;51487;52.266;10.542;2023-04-16T01:17:47;9.00;97.67
64961;SHT31;51487;52.266;10.542;2023-04-16T01:20:13;8.90;97.90
64961;SHT31;51487;52.266;10.542;2023-04-16T01:22:39;8.84;97.94
64961;SHT31;51487;52.266;10.542;2023-04-16T01:25:05;8.94;97.89
64961;SHT31;51487;52.266;10.542;2023-04-16T01:27:30;8.91;98.15
64961;SHT31;51487;52.266;10.542;2023-04-16T01:29:56;8.97;97.92
64961;SHT31;51487;52.266;10.542;2023-04-16T01:32:22;8.94;97.35
64961;SHT31;51487;52.266;10.542;2023-04-16T01:34:48;8.91;97.20
64961;SHT31;51487;52.266;10.542;2023-04-16T01:37:16;8.88;97.51
64961;SHT31;51487;52.266;10.542;2023-04-16T01:39:42;8.83;97.36
64961;SHT31;51487;52.266;10.542;2023-04-16T01:42:07;8.80;97.20
64961;SHT31;51487;52.266;10.542;2023-04-16T01:44:33;8.84;97.24
64961;SHT31;51487;52.266;10.542;2023-04-16T01:46:58;8.79;97.26
64961;SHT31;51487;52.266;10.542;2023-04-16T01:49:24;8.67;97.58
64961;SHT31;51487;52.266;10.542;2023-04-16T01:51:50;8.72;97.60
64961;SHT31;51487;52.266;10.542;2023-04-16T01:54:15;8.75;97.61
64961;SHT31;51487;52.266;10.542;2023-04-16T01:56:41;8.66;97.59
64961;SHT31;51487;52.266;10.542;2023-04-16T01:59:06;8.86;96.68
64961;SHT31;51487;52.266;10.542;2023-04-16T02:01:32;8.83;96.45
64961;SHT31;51487;52.266;10.542;2023-04-16T02:03:57;8.76;96.54
64961;SHT31;51487;52.266;10.542;2023-04-16T02:06:23;8.76;96.61
64961;SHT31;51487;52.266;10.542;2023-04-16T02:08:48;8.69;96.78
64961;SHT31;51487;52.266;10.542;2023-04-16T02:11:14;8.75;96.80
64961;SHT31;51487;52.266;10.542;2023-04-16T02:13:40;8.75;97.00
64961;SHT31;51487;52.266;10.542;2023-04-16T02:16:06;8.70;96.62
64961;SHT31;51487;52.266;10.542;2023-04-16T02:18:31;8.70;96.81
64961;SHT31;51487;52.266;10.542;2023-04-16T02:20:58;8.57;96.41
64961;SHT31;51487;52.266;10.542;2023-04-16T02:23:27;8.60;96.51
64961;SHT31;51487;52.266;10.542;2023-04-16T02:25:52;8.52;96.78
64961;SHT31;51487;52.266;10.542;2023-04-16T02:28:18;8.59;96.70
64961;SHT31;51487;52.266;10.542;2023-04-16T02:30:43;8.50;96.37
64961;SHT31;51487;52.266;10.542;2023-04-16T02:33:11;8.50;96.29
64961;SHT31;51487;52.266;10.542;2023-04-16T02:35:38;8.45;96.28
64961;SHT31;51487;52.266;10.542;2023-04-16T02:38:04;8.39;96.54
64961;SHT31;51487;52.266;10.542;2023-04-16T02:40:30;8.32;96.54
64961;SHT31;51487;52.266;10.542;2023-04-16T02:42:56;8.29;96.65
64961;SHT31;51487;52.266;10.542;2023-04-16T02:45:22;8.29;96.50
64961;SHT31;51487;52.266;10.542;2023-04-16T02:47:49;8.21;96.72
64961;SHT31;51487;52.266;10.542;2023-04-16T02:50:15;8.29;96.93
64961;SHT31;51487;52.266;10.542;2023-04-16T02:52:41;8.24;96.71
64961;SHT31;51487;52.266;10.542;2023-04-16T02:55:07;8.36;96.82
64961;SHT31;51487;52.266;10.542;2023-04-16T02:57:33;8.32;96.77
64961;SHT31;51487;52.266;10.542;2023-04-16T02:59:59;8.18;97.05
64961;SHT31;51487;52.266;10.542;2023-04-16T03:02:25;8.32;97.19
64961;SHT31;51487;52.266;10.542;2023-04-16T03:04:52;8.36;96.62
64961;SHT31;51487;52.266;10.542;2023-04-16T03:07:18;8.50;96.50
64961;SHT31;51487;52.266;10.542;2023-04-16T03:09:43;8.45;96.39
64961;SHT31;51487;52.266;10.542;2023-04-16T03:12:09;8.39;96.84
64961;SHT31;51487;52.266;10.542;2023-04-16T03:14:35;8.39;96.80
64961;SHT31;51487;52.266;10.542;2023-04-16T03:17:01;8.42;96.83
64961;SHT31;51487;52.266;10.542;2023-04-16T03:19:26;8.49;96.88
64961;SHT31;51487;52.266;10.542;2023-04-16T03:21:52;8.25;97.21
64961;SHT31;51487;52.266;10.542;2023-04-16T03:24:17;8.21;97.38
64961;SHT31;51487;52.266;10.542;2023-04-16T03:26:43;8.20;97.26
64961;SHT31;51487;52.266;10.542;2023-04-16T03:29:08;8.12;97.00
64961;SHT31;51487;52.266;10.542;2023-04-16T03:31:34;8.17;97.06
64961;SHT31;51487;52.266;10.542;2023-04-16T03:33:59;8.15;97.20
64961;SHT31;51487;52.266;10.542;2023-04-16T03:36:25;8.18;97.34
64961;SHT31;51487;52.266;10.542;2023-04-16T03:38:54;8.14;96.91
64961;SHT31;51487;52.266;10.542;2023-04-16T03:41:19;8.22;96.93
64961;SHT31;51487;52.266;10.542;2023-04-16T03:43:45;8.15;96.98
64961;SHT31;51487;52.266;10.542;2023-04-16T03:46:10;8.01;97.80
64961;SHT31;51487;52.266;10.542;2023-04-16T03:48:36;8.07;97.72
64961;SHT31;51487;52.266;10.542;2023-04-16T03:51:02;8.14;97.28
64961;SHT31;51487;52.266;10.542;2023-04-16T03:53:28;8.15;96.92
64961;SHT31;51487;52.266;10.542;2023-04-16T03:55:53;8.20;97.08
64961;SHT31;51487;52.266;10.542;2023-04-16T03:58:20;8.15;97.03
64961;SHT31;51487;52.266;10.542;2023-04-16T04:00:45;8.21;97.00
64961;SHT31;51487;52.266;10.542;2023-04-16T04:03:12;8.04;97.68
64961;SHT31;51487;52.266;10.542;2023-04-16T04:05:41;8.11;97.72
64961;SHT31;51487;52.266;10.542;2023-04-16T04:08:08;8.11;97.66
64961;SHT31;51487;52.266;10.542;2023-04-16T04:10:34;8.11;97.68
64961;SHT31;51487;52.266;10.542;2023-04-16T04:13:03;8.02;97.53
64961;SHT31;51487;52.266;10.542;2023-04-16T04:15:29;8.02;97.84
64961;SHT31;51487;52.266;10.542;2023-04-16T04:17:55;8.08;97.70
64961;SHT31;51487;52.266;10.542;2023-04-16T04:20:21;8.05;98.08
64961;SHT31;51487;52.266;10.542;2023-04-16T04:22:47;8.04;98.26
64961;SHT31;51487;52.266;10.542;2023-04-16T04:25:13;8.17;97.96
64961;SHT31;51487;52.266;10.542;2023-04-16T04:27:38;8.15;97.70
64961;SHT31;51487;52.266;10.542;2023-04-16T04:30:05;8.18;96.99
64961;SHT31;51487;52.266;10.542;2023-04-16T04:32:31;8.20;97.13
64961;SHT31;51487;52.266;10.542;2023-04-16T04:34:59;8.21;97.13
64961;SHT31;51487;52.266;10.542;2023-04-16T04:37:25;8.15;96.83
64961;SHT31;51487;52.266;10.542;2023-04-16T04:39:50;8.05;97.20
64961;SHT31;51487;52.266;10.542;2023-04-16T04:42:17;8.15;97.34
64961;SHT31;51487;52.266;10.542;2023-04-16T04:44:43;8.24;96.93
64961;SHT31;51487;52.266;10.542;2023-04-16T04:47:09;8.31;96.89
64961;SHT31;51487;52.266;10.542;2023-04-16T04:49:35;8.15;97.50
64961;SHT31;51487;52.266;10.542;2023-04-16T04:52:00;8.01;98.20
64961;SHT31;51487;52.266;10.542;2023-04-16T04:54:29;8.11;97.89
64961;SHT31;51487;52.266;10.542;2023-04-16T04:56:54;8.20;97.32
64961;SHT31;51487;52.266;10.542;2023-04-16T04:59:21;8.07;97.59
64961;SHT31;51487;52.266;10.542;2023-04-16T05:01:47;8.08;97.70
64961;SHT31;51487;52.266;10.542;2023-04-16T05:04:12;8.04;97.76
64961;SHT31;51487;52.266;10.542;2023-04-16T05:06:38;8.01;98.13
64961;SHT31;51487;52.266;10.542;2023-04-16T05:09:03;8.09;97.87
64961;SHT31;51487;52.266;10.542;2023-04-16T05:11:29;8.08;97.98
64961;SHT31;51487;52.266;10.542;2023-04-16T05:13:54;8.12;97.57
64961;SHT31;51487;52.266;10.542;2023-04-16T05:16:20;8.04;97.98
64961;SHT31;51487;52.266;10.542;2023-04-16T05:18:45;8.18;97.82
64961;SHT31;51487;52.266;10.542;2023-04-16T05:21:11;8.14;97.31
64961;SHT31;51487;52.266;10.542;2023-04-16T05:23:36;8.15;97.26
64961;SHT31;51487;52.266;10.542;2023-04-16T05:26:02;8.07;97.32
64961;SHT31;51487;52.266;10.542;2023-04-16T05:28:29;8.11;97.65
64961;SHT31;51487;52.266;10.542;2023-04-16T05:30:55;7.94;98.32
64961;SHT31;51487;52.266;10.542;2023-04-16T05:33:20;8.05;97.94
64961;SHT31;51487;52.266;10.542;2023-04-16T05:35:45;7.97;98.01
64961;SHT31;51487;52.266;10.542;2023-04-16T05:38:11;8.09;97.79
64961;SHT31;51487;52.266;10.542;2023-04-16T05:40:36;8.01;97.40
64961;SHT31;51487;52.266;10.542;2023-04-16T05:43:02;8.05;97.46
64961;SHT31;51487;52.266;10.542;2023-04-16T05:45:28;8.21;97.40
64961;SHT31;51487;52.266;10.542;2023-04-16T05:47:53;8.17;97.26
64961;SHT31;51487;52.266;10.542;2023-04-16T05:50:19;8.26;96.91
64961;SHT31;51487;52.266;10.542;2023-04-16T05:52:44;8.05;97.42
64961;SHT31;51487;52.266;10.542;2023-04-16T05:55:10;8.18;96.88
64961;SHT31;51487;52.266;10.542;2023-04-16T05:57:35;8.15;97.05
64961;SHT31;51487;52.266;10.542;2023-04-16T06:00:01;8.26;96.90
64961;SHT31;51487;52.266;10.542;2023-04-16T06:02:27;8.15;96.94
64961;SHT31;51487;52.266;10.542;2023-04-16T06:04:54;8.22;96.86
64961;SHT31;51487;52.266;10.542;2023-04-16T06:07:20;8.35;96.33
64961;SHT31;51487;52.266;10.542;2023-04-16T06:09:45;8.18;96.47
64961;SHT31;51487;52.266;10.542;2023-04-16T06:12:11;8.20;96.64
64961;SHT31;51487;52.266;10.542;2023-04-16T06:14:36;8.25;96.66
64961;SHT31;51487;52.266;10.542;2023-04-16T06:17:02;8.32;96.26
64961;SHT31;51487;52.266;10.542;2023-04-16T06:19:27;8.28;96.36
64961;SHT31;51487;52.266;10.542;2023-04-16T06:21:53;8.26;96.38
64961;SHT31;51487;52.266;10.542;2023-04-16T06:24:19;8.32;96.31
64961;SHT31;51487;52.266;10.542;2023-04-16T06:26:44;8.26;96.03
64961;SHT31;51487;52.266;10.542;2023-04-16T06:29:10;8.28;96.02
64961;SHT31;51487;52.266;10.542;2023-04-16T06:31:36;8.32;96.18
64961;SHT31;51487;52.266;10.542;2023-04-16T06:34:01;8.42;95.76
64961;SHT31;51487;52.266;10.542;2023-04-16T06:36:27;8.48;95.93
64961;SHT31;51487;52.266;10.542;2023-04-16T06:38:53;8.36;96.07
64961;SHT31;51487;52.266;10.542;2023-04-16T06:41:19;8.32;96.22
64961;SHT31;51487;52.266;10.542;2023-04-16T06:43:44;8.35;96.34
64961;SHT31;51487;52.266;10.542;2023-04-16T06:46:10;8.32;96.35
64961;SHT31;51487;52.266;10.542;2023-04-16T06:48:35;8.46;95.63
64961;SHT31;51487;52.266;10.542;2023-04-16T06:51:01;8.45;95.59
64961;SHT31;51487;52.266;10.542;2023-04-16T06:53:26;8.36;95.84
64961;SHT31;51487;52.266;10.542;2023-04-16T06:55:52;8.52;95.70
64961;SHT31;51487;52.266;10.542;2023-04-16T06:58:18;8.50;95.83
64961;SHT31;51487;52.266;10.542;2023-04-16T07:00:44;8.56;95.83
64961;SHT31;51487;52.266;10.542;2023-04-16T07:03:10;8.48;95.10
64961;SHT31;51487;52.266;10.542;2023-04-16T07:05:35;8.50;95.76
64961;SHT31;51487;52.266;10.542;2023-04-16T07:08:01;8.60;95.49
64961;SHT31;51487;52.266;10.542;2023-04-16T07:10:26;8.53;95.54
64961;SHT31;51487;52.266;10.542;2023-04-16T07:12:52;8.63;95.07
64961;SHT31;51487;52.266;10.542;2023-04-16T07:15:17;8.62;94.99
64961;SHT31;51487;52.266;10.542;2023-04-16T07:17:43;8.56;95.50
64961;SHT31;51487;52.266;10.542;2023-04-16T07:20:09;8.57;95.59
64961;SHT31;51487;52.266;10.542;2023-04-16T07:22:34;8.57;95.56
64961;SHT31;51487;52.266;10.542;2023-04-16T07:25:00;8.52;96.18
64961;SHT31;51487;52.266;10.542;2023-04-16T07:27:26;8.24;96.24
64961;SHT31;51487;52.266;10.542;2023-04-16T07:29:51;8.29;96.28
64961;SHT31;51487;52.266;10.542;2023-04-16T07:32:17;8.36;96.49
64961;SHT31;51487;52.266;10.542;2023-04-16T07:34:42;8.41;96.02
64961;SHT31;51487;52.266;10.542;2023-04-16T07:37:08;8.52;96.00
64961;SHT31;51487;52.266;10.542;2023-04-16T07:39:33;8.67;95.50
64961;SHT31;51487;52.266;10.542;2023-04-16T07:41:59;8.63;95.30
64961;SHT31;51487;52.266;10.542;2023-04-16T07:44:25;8.60;95.58
64961;SHT31;51487;52.266;10.542;2023-04-16T07:46:51;8.75;95.41
64961;SHT31;51487;52.266;10.542;2023-04-16T07:49:16;8.77;95.61
64961;SHT31;51487;52.266;10.542;2023-04-16T07:51:42;8.67;96.01
64961;SHT31;51487;52.266;10.542;2023-04-16T07:54:07;8.69;95.74
64961;SHT31;51487;52.266;10.542;2023-04-16T07:56:33;8.86;95.21
64961;SHT31;51487;52.266;10.542;2023-04-16T07:58:58;8.73;95.52
64961;SHT31;51487;52.266;10.542;2023-04-16T08:01:24;8.66;96.58
64961;SHT31;51487;52.266;10.542;2023-04-16T08:03:50;8.80;95.73
64961;SHT31;51487;52.266;10.542;2023-04-16T08:06:16;9.01;95.11
64961;SHT31;51487;52.266;10.542;2023-04-16T08:08:41;9.17;94.59
64961;SHT31;51487;52.266;10.542;2023-04-16T08:11:07;9.03;95.15
64961;SHT31;51487;52.266;10.542;2023-04-16T08:13:33;8.97;94.90
64961;SHT31;51487;52.266;10.542;2023-04-16T08:15:58;8.88;95.26
64961;SHT31;51487;52.266;10.542;2023-04-16T08:18:24;8.83;95.96
64961;SHT31;51487;52.266;10.542;2023-04-16T08:20:49;8.80;95.85
64961;SHT31;51487;52.266;10.542;2023-04-16T08:23:15;8.86;96.09
64961;SHT31;51487;52.266;10.542;2023-04-16T08:25:41;8.77;96.42
64961;SHT31;51487;52.266;10.542;2023-04-16T08:28:06;8.67;96.92
64961;SHT31;51487;52.266;10.542;2023-04-16T08:30:32;8.66;96.51
64961;SHT31;51487;52.266;10.542;2023-04-16T08:32:58;8.70;96.47
64961;SHT31;51487;52.266;10.542;2023-04-16T08:35:23;8.67;96.48
64961;SHT31;51487;52.266;10.542;2023-04-16T08:37:49;8.60;96.79
64961;SHT31;51487;52.266;10.542;2023-04-16T08:40:14;8.67;96.92
64961;SHT31;51487;52.266;10.542;2023-04-16T08:42:53;8.69;96.53
64961;SHT31;51487;52.266;10.542;2023-04-16T08:45:26;8.76;96.59
64961;SHT31;51487;52.266;10.542;2023-04-16T08:47:52;8.77;96.89
64961;SHT31;51487;52.266;10.542;2023-04-16T08:50:25;8.81;96.34
64961;SHT31;51487;52.266;10.542;2023-04-16T08:53:05;8.70;96.21
64961;SHT31;51487;52.266;10.542;2023-04-16T08:55:46;8.57;96.72
64961;SHT31;51487;52.266;10.542;2023-04-16T08:58:18;8.80;96.12
64961;SHT31;51487;52.266;10.542;2023-04-16T09:00:45;8.59;96.55
64961;SHT31;51487;52.266;10.542;2023-04-16T09:03:11;8.31;97.38
64961;SHT31;51487;52.266;10.542;2023-04-16T09:05:38;8.50;96.96
64961;SHT31;51487;52.266;10.542;2023-04-16T09:08:07;8.60;96.82
64961;SHT31;51487;52.266;10.542;2023-04-16T09:10:33;8.46;96.98
64961;SHT31;51487;52.266;10.542;2023-04-16T09:12:59;8.49;97.14
64961;SHT31;51487;52.266;10.542;2023-04-16T09:15:25;8.57;97.04
64961;SHT31;51487;52.266;10.542;2023-04-16T09:17:52;8.57;96.98
64961;SHT31;51487;52.266;10.542;2023-04-16T09:20:18;8.48;96.92
64961;SHT31;51487;52.266;10.542;2023-04-16T09:22:44;8.56;97.41
64961;SHT31;51487;52.266;10.542;2023-04-16T09:25:11;8.48;97.32
64961;SHT31;51487;52.266;10.542;2023-04-16T09:27:38;8.66;97.18
64961;SHT31;51487;52.266;10.542;2023-04-16T09:30:24;8.66;96.40
64961;SHT31;51487;52.266;10.542;2023-04-16T09:33:11;8.63;96.76
64961;SHT31;51487;52.266;10.542;2023-04-16T09:35:51;8.53;96.91
64961;SHT31;51487;52.266;10.542;2023-04-16T09:38:18;8.59;96.52
64961;SHT31;51487;52.266;10.542;2023-04-16T09:40:44;8.53;96.73
64961;SHT31;51487;52.266;10.542;2023-04-16T09:43:17;8.63;96.88
64961;SHT31;51487;52.266;10.542;2023-04-16T09:45:51;8.67;96.77
64961;SHT31;51487;52.266;10.542;2023-04-16T09:48:30;8.63;97.23
64961;SHT31;51487;52.266;10.542;2023-04-16T09:50:58;8.77;96.94
64961;SHT31;51487;52.266;10.542;2023-04-16T09:53:29;8.72;96.78
64961;SHT31;51487;52.266;10.542;2023-04-16T09:56:00;8.87;96.60
64961;SHT31;51487;52.266;10.542;2023-04-16T09:58:26;8.86;96.11
64961;SHT31;51487;52.266;10.542;2023-04-16T10:01:10;9.01;95.92
64961;SHT31;51487;52.266;10.542;2023-04-16T10:03:38;8.97;95.79
64961;SHT31;51487;52.266;10.542;2023-04-16T10:06:19;9.01;95.79
64961;SHT31;51487;52.266;10.542;2023-04-16T10:08:49;8.72;96.46
64961;SHT31;51487;52.266;10.542;2023-04-16T10:11:16;8.72;96.81
64961;SHT31;51487;52.266;10.542;2023-04-16T10:13:42;8.83;96.43
64961;SHT31;51487;52.266;10.542;2023-04-16T10:16:08;8.76;96.79
64961;SHT31;51487;52.266;10.542;2023-04-16T10:18:39;8.83;96.33
64961;SHT31;51487;52.266;10.542;2023-04-16T10:21:06;8.81;96.17
64961;SHT31;51487;52.266;10.542;2023-04-16T10:23:33;8.77;96.05
64961;SHT31;51487;52.266;10.542;2023-04-16T10:26:01;8.69;96.20
64961;SHT31;51487;52.266;10.542;2023-04-16T10:28:27;8.84;95.37
64961;SHT31;51487;52.266;10.542;2023-04-16T10:30:56;8.90;95.28
64961;SHT31;51487;52.266;10.542;2023-04-16T10:33:28;8.86;95.32
64961;SHT31;51487;52.266;10.542;2023-04-16T10:36:15;8.93;95.05
64961;SHT31;51487;52.266;10.542;2023-04-16T10:38:49;9.14;94.66
64961;SHT31;51487;52.266;10.542;2023-04-16T10:41:19;9.20;94.18
64961;SHT31;51487;52.266;10.542;2023-04-16T10:43:48;9.32;93.88
64961;SHT31;51487;52.266;10.542;2023-04-16T10:46:40;9.30;93.88
64961;SHT31;51487;52.266;10.542;2023-04-16T10:49:22;9.41;93.43
64961;SHT31;51487;52.266;10.542;2023-04-16T10:51:58;9.38;93.43
64961;SHT31;51487;52.266;10.542;2023-04-16T10:54:26;9.30;93.46
64961;SHT31;51487;52.266;10.542;2023-04-16T10:56:53;9.39;93.57
64961;SHT31;51487;52.266;10.542;2023-04-16T10:59:21;9.24;93.67
64961;SHT31;51487;52.266;10.542;2023-04-16T11:01:54;9.30;93.93
64961;SHT31;51487;52.266;10.542;2023-04-16T11:09:57;9.71;93.73
64961;SHT31;51487;52.266;10.542;2023-04-16T11:12:33;9.89;92.99
64961;SHT31;51487;52.266;10.542;2023-04-16T11:15:19;9.76;92.50
64961;SHT31;51487;52.266;10.542;2023-04-16T11:17:47;9.76;92.26
64961;SHT31;51487;52.266;10.542;2023-04-16T11:20:17;9.52;93.29
64961;SHT31;51487;52.266;10.542;2023-04-16T11:22:43;9.51;93.47
64961;SHT31;51487;52.266;10.542;2023-04-16T11:25:11;9.54;93.41
64961;SHT31;51487;52.266;10.542;2023-04-16T11:27:38;9.61;93.15
64961;SHT31;51487;52.266;10.542;2023-04-16T11:30:06;9.56;93.48
64961;SHT31;51487;52.266;10.542;2023-04-16T11:32:35;9.56;93.80
64961;SHT31;51487;52.266;10.542;2023-04-16T11:35:04;9.48;93.25
64961;SHT31;51487;52.266;10.542;2023-04-16T11:37:37;9.13;95.11
64961;SHT31;51487;52.266;10.542;2023-04-16T11:40:05;9.38;94.35
64961;SHT31;51487;52.266;10.542;2023-04-16T11:42:33;9.30;94.45
64961;SHT31;51487;52.266;10.542;2023-04-16T11:45:02;9.21;94.31
64961;SHT31;51487;52.266;10.542;2023-04-16T11:47:33;9.31;95.04
64961;SHT31;51487;52.266;10.542;2023-04-16T11:50:27;9.52;94.19
64961;SHT31;51487;52.266;10.542;2023-04-16T11:53:03;9.62;94.02
64961;SHT31;51487;52.266;10.542;2023-04-16T11:55:28;9.58;93.71
64961;SHT31;51487;52.266;10.542;2023-04-16T11:57:54;9.58;94.30
64961;SHT31;51487;52.266;10.542;2023-04-16T12:00:20;9.58;94.36
64961;SHT31;51487;52.266;10.542;2023-04-16T12:02:52;9.83;93.35
64961;SHT31;51487;52.266;10.542;2023-04-16T12:05:36;9.85;93.54
64961;SHT31;51487;52.266;10.542;2023-04-16T12:08:11;9.94;93.79
64961;SHT31;51487;52.266;10.542;2023-04-16T12:10:52;10.23;92.18
64961;SHT31;51487;52.266;10.542;2023-04-16T12:13:18;10.38;91.51
64961;SHT31;51487;52.266;10.542;2023-04-16T12:15:50;10.81;89.95
64961;SHT31;51487;52.266;10.542;2023-04-16T12:18:18;11.01;90.04
64961;SHT31;51487;52.266;10.542;2023-04-16T12:20:45;11.22;90.05
64961;SHT31;51487;52.266;10.542;2023-04-16T12:23:29;11.12;89.14
64961;SHT31;51487;52.266;10.542;2023-04-16T12:25:56;11.78;87.16
64961;SHT31;51487;52.266;10.542;2023-04-16T12:28:33;12.11;86.66
64961;SHT31;51487;52.266;10.542;2023-04-16T12:31:01;11.87;88.43
64961;SHT31;51487;52.266;10.542;2023-04-16T12:33:28;11.69;88.32
64961;SHT31;51487;52.266;10.542;2023-04-16T12:35:53;11.51;88.85
64961;SHT31;51487;52.266;10.542;2023-04-16T12:38:19;11.88;87.67
64961;SHT31;51487;52.266;10.542;2023-04-16T12:40:45;11.44;88.54
64961;SHT31;51487;52.266;10.542;2023-04-16T12:43:11;11.70;88.37
64961;SHT31;51487;52.266;10.542;2023-04-16T12:45:38;11.70;87.92
64961;SHT31;51487;52.266;10.542;2023-04-16T12:48:04;12.09;86.75
64961;SHT31;51487;52.266;10.542;2023-04-16T12:50:29;12.24;87.04
64961;SHT31;51487;52.266;10.542;2023-04-16T12:52:55;11.91;88.14
64961;SHT31;51487;52.266;10.542;2023-04-16T12:55:21;11.67;89.07
64961;SHT31;51487;52.266;10.542;2023-04-16T12:57:46;11.57;88.43
64961;SHT31;51487;52.266;10.542;2023-04-16T13:00:13;11.11;90.68
64961;SHT31;51487;52.266;10.542;2023-04-16T13:02:40;10.93;90.76
64961;SHT31;51487;52.266;10.542;2023-04-16T13:05:07;11.27;90.02
64961;SHT31;51487;52.266;10.542;2023-04-16T13:07:33;11.19;90.37
64961;SHT31;51487;52.266;10.542;2023-04-16T13:09:59;11.18;90.70
64961;SHT31;51487;52.266;10.542;2023-04-16T13:12:25;10.91;91.35
64961;SHT31;51487;52.266;10.542;2023-04-16T13:14:51;11.30;90.50
64961;SHT31;51487;52.266;10.542;2023-04-16T13:17:17;11.37;90.40
64961;SHT31;51487;52.266;10.542;2023-04-16T13:19:42;11.37;90.31
64961;SHT31;51487;52.266;10.542;2023-04-16T13:22:08;11.66;88.41
64961;SHT31;51487;52.266;10.542;2023-04-16T13:24:34;11.80;88.49
64961;SHT31;51487;52.266;10.542;2023-04-16T13:26:59;11.97;87.86
64961;SHT31;51487;52.266;10.542;2023-04-16T13:29:25;11.67;88.96
64961;SHT31;51487;52.266;10.542;2023-04-16T13:31:51;11.84;88.00
64961;SHT31;51487;52.266;10.542;2023-04-16T13:34:17;11.56;88.95
64961;SHT31;51487;52.266;10.542;2023-04-16T13:36:42;11.71;88.59
64961;SHT31;51487;52.266;10.542;2023-04-16T13:39:08;11.77;88.21
64961;SHT31;51487;52.266;10.542;2023-04-16T13:41:39;11.80;87.98
64961;SHT31;51487;52.266;10.542;2023-04-16T13:44:05;11.95;88.00
64961;SHT31;51487;52.266;10.542;2023-04-16T13:46:31;12.19;86.38
64961;SHT31;51487;52.266;10.542;2023-04-16T13:48:57;11.82;87.07
64961;SHT31;51487;52.266;10.542;2023-04-16T13:51:22;11.99;87.26
64961;SHT31;51487;52.266;10.542;2023-04-16T13:53:48;12.18;85.96
64961;SHT31;51487;52.266;10.542;2023-04-16T13:56:14;12.49;85.44
64961;SHT31;51487;52.266;10.542;2023-04-16T13:58:39;13.01;83.40
64961;SHT31;51487;52.266;10.542;2023-04-16T14:01:06;13.12;83.34
64961;SHT31;51487;52.266;10.542;2023-04-16T14:03:32;13.25;82.67
64961;SHT31;51487;52.266;10.542;2023-04-16T14:06:03;12.60;83.92
64961;SHT31;51487;52.266;10.542;2023-04-16T14:08:29;12.87;83.83
64961;SHT31;51487;52.266;10.542;2023-04-16T14:10:56;12.57;84.60
64961;SHT31;51487;52.266;10.542;2023-04-16T14:13:23;12.79;84.12
64961;SHT31;51487;52.266;10.542;2023-04-16T14:15:48;12.18;86.19
64961;SHT31;51487;52.266;10.542;2023-04-16T14:18:14;12.39;85.49
64961;SHT31;51487;52.266;10.542;2023-04-16T14:20:40;12.84;84.52
64961;SHT31;51487;52.266;10.542;2023-04-16T14:23:05;13.12;83.73
64961;SHT31;51487;52.266;10.542;2023-04-16T14:25:32;12.91;83.94
64961;SHT31;51487;52.266;10.542;2023-04-16T14:27:59;13.04;83.38
64961;SHT31;51487;52.266;10.542;2023-04-16T14:30:25;13.44;81.91
64961;SHT31;51487;52.266;10.542;2023-04-16T14:32:50;13.41;81.72
64961;SHT31;51487;52.266;10.542;2023-04-16T14:35:16;13.11;82.94
64961;SHT31;51487;52.266;10.542;2023-04-16T14:37:42;12.75;84.16
64961;SHT31;51487;52.266;10.542;2023-04-16T14:40:08;12.63;84.53
64961;SHT31;51487;52.266;10.542;2023-04-16T14:42:35;12.60;85.27
64961;SHT31;51487;52.266;10.542;2023-04-16T14:45:02;12.73;84.98
64961;SHT31;51487;52.266;10.542;2023-04-16T14:47:33;12.67;85.61
64961;SHT31;51487;52.266;10.542;2023-04-16T14:50:00;12.73;85.55
64961;SHT31;51487;52.266;10.542;2023-04-16T14:52:26;12.57;85.85
64961;SHT31;51487;52.266;10.542;2023-04-16T14:54:55;12.17;87.38
64961;SHT31;51487;52.266;10.542;2023-04-16T14:57:21;12.15;87.49
64961;SHT31;51487;52.266;10.542;2023-04-16T14:59:47;11.87;88.45
64961;SHT31;51487;52.266;10.542;2023-04-16T15:02:13;11.91;88.20
64961;SHT31;51487;52.266;10.542;2023-04-16T15:04:39;11.97;88.14
64961;SHT31;51487;52.266;10.542;2023-04-16T15:07:05;12.08;87.65
64961;SHT31;51487;52.266;10.542;2023-04-16T15:09:30;12.14;88.04
64961;SHT31;51487;52.266;10.542;2023-04-16T15:11:56;12.18;87.94
64961;SHT31;51487;52.266;10.542;2023-04-16T15:14:22;12.09;88.01
64961;SHT31;51487;52.266;10.542;2023-04-16T15:16:48;12.12;87.84
64961;SHT31;51487;52.266;10.542;2023-04-16T15:19:14;12.08;87.06
64961;SHT31;51487;52.266;10.542;2023-04-16T15:21:39;12.19;86.88
64961;SHT31;51487;52.266;10.542;2023-04-16T15:24:05;12.26;86.94
64961;SHT31;51487;52.266;10.542;2023-04-16T15:26:31;12.50;85.95
64961;SHT31;51487;52.266;10.542;2023-04-16T15:28:57;12.60;85.92
64961;SHT31;51487;52.266;10.542;2023-04-16T15:31:22;12.57;86.11
64961;SHT31;51487;52.266;10.542;2023-04-16T15:33:48;12.75;84.40